Time;durP1;ratioP1;P1;durP2;ratioP2;P2;SDS_P1;SDS_P2;PMS_P1;PMS_P2;Temp;Humidity;BMP_temperature;BMP_pressure;BME280_temperature;BME280_humidity;BME280_pressure;Samples;Min_cycle;Max_cycle;Signal;HPM_P1;HPM_P2
2022/10/02 00:01:49;;;;;;;20.95;14.95;;;9.30;99.90;;;;;;5051833;28;20025;-74
2022/10/02 00:04:21;;;;;;;18.58;13.88;;;9.30;99.90;;;;;;5050445;28;20021;-74
2022/10/02 00:06:48;;;;;;;22.75;17.27;;;9.30;99.90;;;;;;5071229;28;20021;-74
2022/10/02 00:09:41;;;;;;;18.92;15.35;;;9.30;99.90;;;;;;5071704;28;20028;-75
2022/10/02 00:12:10;;;;;;;17.17;13.23;;;9.50;99.90;;;;;;5056376;28;20037;-74
2022/10/02 00:14:39;;;;;;;24.77;17.15;;;9.20;99.90;;;;;;5049699;28;20024;-74
2022/10/02 00:17:09;;;;;;;17.45;13.32;;;9.20;99.90;;;;;;5050105;28;20543;-74
2022/10/02 00:19:35;;;;;;;28.83;18.67;;;9.30;99.90;;;;;;5049990;28;20036;-73
2022/10/02 00:22:05;;;;;;;15.35;12.57;;;9.30;99.90;;;;;;5051628;28;20112;-72
2022/10/02 00:24:56;;;;;;;12.73;9.63;;;9.30;99.90;;;;;;5050428;28;20699;-72
2022/10/02 00:27:43;;;;;;;17.35;13.15;;;9.40;99.90;;;;;;5037035;28;20033;-72
2022/10/02 00:30:16;;;;;;;20.73;14.23;;;9.60;99.90;;;;;;5051493;28;20021;-72
2022/10/02 00:32:56;;;;;;;25.05;16.30;;;9.60;99.90;;;;;;5051362;28;20078;-72
2022/10/02 00:35:54;;;;;;;21.35;16.17;;;9.50;99.90;;;;;;5051354;28;20085;-72
2022/10/02 00:38:34;;;;;;;18.95;13.50;;;9.50;99.90;;;;;;5061731;28;20547;-73
2022/10/02 00:41:21;;;;;;;17.30;12.77;;;9.40;99.90;;;;;;5071414;28;20032;-73
2022/10/02 00:44:17;;;;;;;24.45;16.88;;;9.50;99.90;;;;;;5071171;28;20017;-72
2022/10/02 00:47:00;;;;;;;24.35;17.15;;;9.50;99.90;;;;;;5071414;28;20050;-73
2022/10/02 00:49:46;;;;;;;28.23;19.60;;;9.40;99.90;;;;;;5071308;28;20029;-73
2022/10/02 00:52:28;;;;;;;21.67;16.92;;;9.40;99.90;;;;;;5069983;28;20029;-73
2022/10/02 00:54:56;;;;;;;26.45;18.23;;;9.40;99.90;;;;;;5071167;28;20458;-72
2022/10/02 00:57:36;;;;;;;23.10;18.27;;;9.40;99.90;;;;;;5071057;28;20056;-73
2022/10/02 01:00:17;;;;;;;20.35;15.05;;;9.40;99.90;;;;;;5069876;28;20025;-73
2022/10/02 01:02:56;;;;;;;23.55;16.92;;;9.40;99.90;;;;;;5070989;28;20025;-73
2022/10/02 01:05:22;;;;;;;21.98;15.32;;;9.40;99.90;;;;;;5071065;28;20445;-73
2022/10/02 01:07:51;;;;;;;27.05;19.25;;;9.40;99.90;;;;;;5069932;28;20093;-73
2022/10/02 01:10:18;;;;;;;19.10;15.20;;;9.40;99.90;;;;;;5069799;28;20028;-73
2022/10/02 01:12:44;;;;;;;26.33;18.67;;;9.50;99.90;;;;;;5057323;28;20044;-73
2022/10/02 01:15:14;;;;;;;30.80;21.02;;;9.60;99.90;;;;;;5049881;28;20401;-73
2022/10/02 01:17:41;;;;;;;24.27;15.40;;;9.50;99.90;;;;;;5049409;28;20567;-73
2022/10/02 01:20:13;;;;;;;23.50;17.33;;;9.60;99.90;;;;;;5050868;28;20029;-73
2022/10/02 01:22:51;;;;;;;17.45;13.73;;;9.70;99.90;;;;;;5050921;28;20543;-73
2022/10/02 01:25:16;;;;;;;22.08;17.80;;;9.70;99.90;;;;;;5049686;28;20033;-73
2022/10/02 01:27:42;;;;;;;17.35;13.07;;;9.80;99.90;;;;;;5053514;28;20025;-74
2022/10/02 01:30:11;;;;;;;20.95;14.88;;;9.80;99.90;;;;;;5054745;28;20033;-73
2022/10/02 01:32:41;;;;;;;17.77;14.70;;;9.90;99.90;;;;;;5054551;28;20029;-73
2022/10/02 01:35:07;;;;;;;20.52;14.18;;;10.00;99.90;;;;;;5053560;28;20398;-73
2022/10/02 01:37:37;;;;;;;18.33;14.73;;;9.90;99.90;;;;;;5054186;28;20053;-72
2022/10/02 01:40:08;;;;;;;21.90;15.35;;;10.00;99.90;;;;;;5054456;28;20024;-73
2022/10/02 01:42:33;;;;;;;23.55;15.68;;;10.00;99.90;;;;;;5053187;28;20025;-74
2022/10/02 01:45:00;;;;;;;24.45;17.90;;;10.00;99.90;;;;;;5054481;28;20025;-73
2022/10/02 01:47:34;;;;;;;18.02;13.70;;;10.00;99.90;;;;;;5052680;28;20461;-73
2022/10/02 01:50:03;;;;;;;18.55;16.15;;;9.90;99.90;;;;;;5054273;28;20052;-73
2022/10/02 01:52:57;;;;;;;36.63;20.20;;;9.90;99.90;;;;;;5054173;28;20025;-72
2022/10/02 01:55:43;;;;;;;65.53;27.05;;;9.80;99.90;;;;;;5054142;28;20090;-73
2022/10/02 01:58:44;;;;;;;35.20;20.75;;;9.70;99.90;;;;;;5054374;28;20025;-72
2022/10/02 02:01:24;;;;;;;23.48;18.67;;;9.60;99.90;;;;;;5054231;28;20017;-73
2022/10/02 02:04:23;;;;;;;29.88;19.85;;;9.60;99.90;;;;;;5059827;28;20025;-73
2022/10/02 02:07:45;;;;;;;26.38;19.27;;;9.60;99.90;;;;;;5072599;28;20033;-73
2022/10/02 02:10:46;;;;;;;28.65;21.23;;;9.60;99.90;;;;;;5057164;28;20489;-72
2022/10/02 02:13:25;;;;;;;34.45;21.63;;;9.60;99.90;;;;;;5051558;28;20418;-73
2022/10/02 02:15:54;;;;;;;31.92;20.13;;;9.70;99.90;;;;;;5052533;28;20025;-72
2022/10/02 02:18:29;;;;;;;31.20;20.95;;;9.90;99.90;;;;;;5053530;28;20021;-72
2022/10/02 02:21:01;;;;;;;32.55;20.23;;;9.90;99.90;;;;;;5053753;28;20442;-73
2022/10/02 02:23:31;;;;;;;28.60;16.90;;;10.00;99.90;;;;;;5052549;28;20025;-73
2022/10/02 02:26:02;;;;;;;27.77;17.45;;;10.10;99.90;;;;;;5053520;28;20025;-73
2022/10/02 02:28:29;;;;;;;27.02;16.05;;;10.20;99.90;;;;;;5053428;28;20021;-74
2022/10/02 02:30:57;;;;;;;25.50;16.70;;;10.20;99.90;;;;;;5053560;28;20021;-73
2022/10/02 02:33:31;;;;;;;35.83;17.95;;;10.20;99.90;;;;;;5053479;28;20071;-73
2022/10/02 02:36:02;;;;;;;27.40;17.17;;;10.20;99.90;;;;;;5053342;28;20024;-73
2022/10/02 02:38:31;;;;;;;39.70;21.83;;;10.30;99.90;;;;;;5053044;28;20025;-72
2022/10/02 02:41:04;;;;;;;33.97;19.60;;;10.30;99.90;;;;;;5053226;28;20055;-72
2022/10/02 02:43:51;;;;;;;30.67;17.08;;;10.30;99.90;;;;;;5053300;28;20091;-72
2022/10/02 02:46:29;;;;;;;24.33;17.80;;;10.30;99.90;;;;;;5051993;28;20119;-72
2022/10/02 02:49:01;;;;;;;25.77;17.90;;;10.30;99.90;;;;;;5052834;28;20028;-73
2022/10/02 02:51:31;;;;;;;29.30;21.58;;;10.30;99.90;;;;;;5053453;28;20078;-73
2022/10/02 02:54:00;;;;;;;30.95;19.92;;;10.20;99.90;;;;;;5053015;28;20063;-73
2022/10/02 02:56:28;;;;;;;36.50;22.73;;;10.20;99.90;;;;;;5052886;28;20060;-73
2022/10/02 02:59:00;;;;;;;31.60;19.33;;;10.20;99.90;;;;;;5052689;28;20028;-74
2022/10/02 03:01:26;;;;;;;36.22;21.35;;;10.20;99.90;;;;;;5052668;28;20036;-75
2022/10/02 03:03:52;;;;;;;25.02;17.58;;;10.30;99.90;;;;;;5051624;28;20028;-74
2022/10/02 03:06:17;;;;;;;26.67;19.60;;;10.40;99.90;;;;;;5067702;28;20378;-75
2022/10/02 03:08:45;;;;;;;35.17;20.15;;;10.40;99.90;;;;;;5052528;28;20482;-74
2022/10/02 03:11:22;;;;;;;29.20;18.60;;;10.40;99.90;;;;;;5054410;28;20086;-75
2022/10/02 03:13:51;;;;;;;37.45;22.30;;;10.50;99.90;;;;;;5061420;28;20028;-76
2022/10/02 03:16:47;;;;;;;31.35;17.77;;;10.50;99.90;;;;;;5062008;28;20032;-74
2022/10/02 03:19:42;;;;;;;30.23;20.55;;;10.60;99.90;;;;;;5057535;28;20500;-74
2022/10/02 03:22:35;;;;;;;29.20;19.00;;;10.50;99.90;;;;;;5052543;28;20029;-74
2022/10/02 03:25:11;;;;;;;26.20;18.60;;;10.50;99.90;;;;;;5061180;28;20138;-74
2022/10/02 03:28:01;;;;;;;29.08;19.77;;;10.60;99.90;;;;;;5072246;28;20032;-73
2022/10/02 03:30:27;;;;;;;28.95;18.15;;;10.60;99.90;;;;;;5058580;28;20041;-74
2022/10/02 03:32:55;;;;;;;29.30;18.75;;;10.60;99.90;;;;;;5066195;28;20032;-74
2022/10/02 03:35:23;;;;;;;46.33;23.55;;;10.60;99.90;;;;;;5065307;28;20024;-73
2022/10/02 03:37:52;;;;;;;34.20;21.45;;;10.60;99.90;;;;;;5067562;28;20493;-72
2022/10/02 03:40:23;;;;;;;32.53;18.48;;;10.60;99.90;;;;;;5064225;28;20024;-72
2022/10/02 03:42:50;;;;;;;30.88;19.38;;;10.70;99.90;;;;;;5059892;28;20009;-73
2022/10/02 03:45:16;;;;;;;34.65;21.05;;;10.70;99.90;;;;;;5057463;28;20025;-73
2022/10/02 03:47:41;;;;;;;31.05;20.95;;;10.70;99.90;;;;;;5052110;28;20074;-73
2022/10/02 03:50:08;;;;;;;34.53;20.35;;;10.70;99.90;;;;;;5051292;28;20025;-73
2022/10/02 03:52:34;;;;;;;31.63;21.17;;;10.70;99.90;;;;;;5051961;28;20025;-74
2022/10/02 03:55:16;;;;;;;36.85;21.67;;;10.70;99.90;;;;;;5050517;28;20029;-74
2022/10/02 03:57:43;;;;;;;34.20;19.73;;;10.70;99.90;;;;;;5051658;28;20419;-73
2022/10/02 04:00:34;;;;;;;29.80;17.42;;;10.70;99.90;;;;;;5051863;28;20017;-73
2022/10/02 04:03:08;;;;;;;33.70;19.13;;;10.70;99.90;;;;;;5050203;28;20403;-70
2022/10/02 04:06:04;;;;;;;28.20;20.50;;;10.80;99.90;;;;;;5061346;28;20077;-71
2022/10/02 04:08:39;;;;;;;31.45;21.13;;;10.80;99.90;;;;;;5066842;28;20100;-73
2022/10/02 04:11:15;;;;;;;34.53;20.92;;;10.80;99.90;;;;;;5060415;28;20036;-73
2022/10/02 04:13:52;;;;;;;38.00;20.88;;;10.80;99.90;;;;;;5051690;28;20055;-74
2022/10/02 04:16:32;;;;;;;32.17;20.23;;;10.80;99.90;;;;;;5051441;28;20048;-73
2022/10/02 04:19:08;;;;;;;36.28;21.30;;;10.80;99.90;;;;;;5051278;28;20059;-73
2022/10/02 04:21:46;;;;;;;39.70;20.48;;;10.80;99.90;;;;;;5050175;28;20070;-73
2022/10/02 04:24:25;;;;;;;42.47;21.52;;;10.80;99.90;;;;;;5050155;28;20017;-73
2022/10/02 04:26:56;;;;;;;35.00;20.23;;;10.80;99.90;;;;;;5051747;28;20067;-73
2022/10/02 04:29:27;;;;;;;32.85;20.30;;;10.90;99.90;;;;;;5051310;28;20104;-73
2022/10/02 04:32:10;;;;;;;33.08;20.70;;;10.90;99.90;;;;;;5051426;28;20542;-74
2022/10/02 04:34:35;;;;;;;37.28;21.90;;;10.90;99.90;;;;;;5050075;28;20029;-74
2022/10/02 04:37:19;;;;;;;35.70;20.83;;;10.90;99.90;;;;;;5050680;28;20222;-74
2022/10/02 04:40:08;;;;;;;30.25;18.65;;;10.90;99.90;;;;;;5060089;28;20420;-75
2022/10/02 04:42:45;;;;;;;39.10;22.73;;;10.90;99.90;;;;;;5059423;28;20064;-75
2022/10/02 04:45:48;;;;;;;35.58;20.95;;;10.90;99.90;;;;;;5071551;28;20561;-75
2022/10/02 04:48:19;;;;;;;36.72;21.80;;;10.90;99.90;;;;;;5062245;28;20040;-74
2022/10/02 04:51:06;;;;;;;33.90;20.13;;;10.90;99.90;;;;;;5071653;28;20048;-75
2022/10/02 04:53:41;;;;;;;30.35;20.08;;;10.90;99.90;;;;;;5057438;28;20035;-75
2022/10/02 04:56:15;;;;;;;35.67;20.10;;;10.90;99.90;;;;;;5070358;28;20123;-75
2022/10/02 04:59:19;;;;;;;31.90;20.10;;;10.90;99.90;;;;;;5054507;28;20095;-71
2022/10/02 05:02:05;;;;;;;34.40;21.20;;;10.90;99.90;;;;;;5054700;28;20024;-74
2022/10/02 05:04:38;;;;;;;23.83;15.80;;;11.00;99.90;;;;;;5074716;28;20451;-76
2022/10/02 05:07:22;;;;;;;20.17;14.35;;;11.00;99.90;;;;;;5062403;28;20025;-76
2022/10/02 05:10:22;;;;;;;19.73;14.02;;;11.00;99.90;;;;;;5072745;28;20493;-74
2022/10/02 05:13:07;;;;;;;26.00;16.33;;;11.10;99.90;;;;;;5037525;28;20044;-74
2022/10/02 05:16:10;;;;;;;24.52;14.80;;;11.10;99.90;;;;;;5063905;28;20064;-74
2022/10/02 05:18:54;;;;;;;31.98;16.48;;;11.10;99.90;;;;;;5032428;28;20087;-73
2022/10/02 05:21:34;;;;;;;25.70;16.20;;;11.10;99.90;;;;;;5055186;28;20107;-73
2022/10/02 05:24:10;;;;;;;23.70;16.33;;;11.10;99.90;;;;;;5054911;28;20104;-73
2022/10/02 05:27:02;;;;;;;29.05;17.73;;;11.10;99.90;;;;;;5062020;28;20385;-73
2022/10/02 05:29:49;;;;;;;30.33;18.80;;;11.10;99.90;;;;;;5075066;28;20024;-73
2022/10/02 05:32:27;;;;;;;28.02;19.10;;;11.10;99.90;;;;;;5074609;28;20025;-73
2022/10/02 05:35:11;;;;;;;27.73;16.27;;;11.10;99.90;;;;;;5074605;28;20036;-73
2022/10/02 05:38:08;;;;;;;29.15;18.00;;;11.30;99.90;;;;;;5072897;28;20020;-73
2022/10/02 05:40:49;;;;;;;37.25;21.25;;;11.20;99.90;;;;;;5074345;28;20021;-73
2022/10/02 05:43:25;;;;;;;25.33;16.13;;;11.20;99.90;;;;;;5074504;28;20032;-73
2022/10/02 05:46:01;;;;;;;23.52;17.25;;;11.20;99.90;;;;;;5074253;28;20489;-73
2022/10/02 05:48:28;;;;;;;29.13;17.08;;;11.10;99.90;;;;;;5073025;28;20401;-73
2022/10/02 05:51:27;;;;;;;23.00;14.80;;;11.20;99.90;;;;;;5072958;28;20058;-73
2022/10/02 05:53:58;;;;;;;27.70;16.13;;;11.10;99.90;;;;;;5044854;28;20033;-73
2022/10/02 05:56:34;;;;;;;23.90;14.02;;;11.20;99.90;;;;;;5054186;28;20183;-74
2022/10/02 05:59:17;;;;;;;;;;;11.20;99.90;;;;;;5054517;28;20493;-74
2022/10/02 06:01:48;;;;;;;22.85;12.80;;;11.20;99.90;;;;;;5052740;28;19908;-73
2022/10/02 06:04:38;;;;;;;21.80;13.13;;;11.20;99.90;;;;;;5054151;28;20057;-73
2022/10/02 06:07:09;;;;;;;22.25;13.55;;;11.20;99.90;;;;;;5053857;28;20033;-74
2022/10/02 06:09:48;;;;;;;69.07;49.63;;;11.20;99.90;;;;;;5053809;28;20439;-73
2022/10/02 06:12:29;;;;;;;85.82;56.70;;;11.30;99.90;;;;;;5053742;28;20021;-73
2022/10/02 06:15:26;;;;;;;99.32;67.65;;;11.30;99.90;;;;;;5053784;28;20023;-73
2022/10/02 06:17:58;;;;;;;62.28;38.10;;;11.40;99.90;;;;;;5053040;28;20056;-73
2022/10/02 06:20:32;;;;;;;114.60;72.13;;;11.30;99.90;;;;;;5053655;28;20036;-73
2022/10/02 06:23:03;;;;;;;137.10;83.20;;;11.30;99.90;;;;;;5052483;28;20016;-73
2022/10/02 06:25:35;;;;;;;177.73;106.45;;;11.30;99.90;;;;;;5053560;28;20470;-73
2022/10/02 06:28:21;;;;;;;220.10;128.57;;;11.30;99.90;;;;;;5053386;28;20029;-72
2022/10/02 06:31:03;;;;;;;153.75;86.95;;;11.30;99.90;;;;;;5053366;28;20029;-73
2022/10/02 06:33:32;;;;;;;183.32;103.20;;;11.40;99.90;;;;;;5053651;28;20425;-73
2022/10/02 06:36:03;;;;;;;184.50;98.30;;;11.40;99.90;;;;;;5053212;28;20383;-73
2022/10/02 06:38:44;;;;;;;266.65;141.90;;;11.40;99.90;;;;;;5053219;28;20017;-73
2022/10/02 06:41:28;;;;;;;51.35;31.98;;;11.70;99.90;;;;;;5059275;28;20024;-73
2022/10/02 06:44:06;;;;;;;35.70;17.83;;;11.50;99.90;;;;;;5073295;28;20025;-73
2022/10/02 06:46:48;;;;;;;19.48;12.02;;;11.50;99.90;;;;;;5061922;28;20024;-74
2022/10/02 06:49:33;;;;;;;24.42;11.90;;;11.50;99.90;;;;;;5058788;28;20017;-74
2022/10/02 06:52:09;;;;;;;21.80;14.32;;;11.50;99.90;;;;;;5057341;28;20429;-74
2022/10/02 06:54:56;;;;;;;24.48;10.35;;;11.60;99.90;;;;;;5053260;28;20043;-75
2022/10/02 06:57:32;;;;;;;19.10;9.35;;;11.60;99.90;;;;;;5073058;28;20032;-74
2022/10/02 07:00:11;;;;;;;17.00;9.00;;;11.60;99.90;;;;;;5059810;28;20082;-74
2022/10/02 07:02:46;;;;;;;26.40;14.43;;;11.70;99.90;;;;;;5063180;28;20025;-74
2022/10/02 07:05:42;;;;;;;17.23;9.00;;;11.80;99.90;;;;;;5051951;28;20549;-74
2022/10/02 07:08:26;;;;;;;23.65;9.02;;;11.80;99.90;;;;;;5064923;28;20033;-74
2022/10/02 07:10:57;;;;;;;15.20;8.57;;;11.80;99.90;;;;;;5051421;28;20487;-74
2022/10/02 07:13:52;;;;;;;23.48;9.40;;;11.90;99.90;;;;;;5067072;28;20444;-74
2022/10/02 07:16:37;;;;;;;20.98;8.43;;;11.90;99.90;;;;;;5068830;28;20024;-74
2022/10/02 07:19:52;;;;;;;19.40;8.65;;;11.90;99.90;;;;;;5060340;28;20402;-74
2022/10/02 07:22:37;;;;;;;17.67;8.75;;;11.90;99.90;;;;;;4985871;28;20072;-74
2022/10/02 07:25:21;;;;;;;18.48;7.32;;;11.90;99.90;;;;;;5055210;28;20489;-74
2022/10/02 07:27:52;;;;;;;17.98;8.45;;;12.00;99.90;;;;;;5067176;28;20414;-74
2022/10/02 07:30:18;;;;;;;17.98;7.65;;;12.00;99.90;;;;;;5062169;28;20021;-74
2022/10/02 07:33:09;;;;;;;17.17;7.90;;;12.00;99.90;;;;;;5053376;28;20025;-74
2022/10/02 07:35:47;;;;;;;21.73;9.75;;;12.00;99.90;;;;;;5066771;28;20381;-74
2022/10/02 07:38:46;;;;;;;16.60;9.07;;;12.00;99.90;;;;;;5062870;28;20429;-74
2022/10/02 07:41:24;;;;;;;17.10;8.50;;;12.00;99.90;;;;;;5059283;28;20021;-74
2022/10/02 07:44:20;;;;;;;15.10;7.60;;;12.10;99.90;;;;;;5055321;28;20486;-74
2022/10/02 07:46:53;;;;;;;17.30;8.98;;;12.10;99.90;;;;;;5050843;28;20060;-74
2022/10/02 07:49:27;;;;;;;23.88;10.63;;;12.10;99.90;;;;;;5052099;28;20032;-74
2022/10/02 07:52:03;;;;;;;22.67;12.73;;;12.10;99.90;;;;;;5064210;28;20055;-74
2022/10/02 07:54:38;;;;;;;23.88;13.95;;;12.10;99.90;;;;;;5060485;28;20024;-74
2022/10/02 07:57:32;;;;;;;16.92;8.77;;;12.10;99.90;;;;;;5054082;28;20029;-74
2022/10/02 08:00:04;;;;;;;23.08;9.73;;;12.10;99.90;;;;;;5051824;28;20021;-74
2022/10/02 08:03:02;;;;;;;19.13;12.27;;;12.10;99.90;;;;;;5050636;28;20043;-74
2022/10/02 08:05:33;;;;;;;17.10;9.10;;;12.10;99.90;;;;;;5069582;28;20024;-74
2022/10/02 08:08:03;;;;;;;19.20;11.50;;;12.10;99.90;;;;;;5091999;28;20028;-74
2022/10/02 08:10:36;;;;;;;22.80;10.15;;;12.10;99.90;;;;;;5082114;28;20028;-74
2022/10/02 08:13:30;;;;;;;15.93;8.85;;;12.10;99.90;;;;;;5058290;28;20029;-74
2022/10/02 08:15:55;;;;;;;16.38;9.40;;;12.10;99.90;;;;;;5072118;28;20113;-74
2022/10/02 08:18:37;;;;;;;14.85;8.50;;;12.10;99.90;;;;;;5058191;28;20060;-74
2022/10/02 08:21:10;;;;;;;16.35;8.20;;;12.20;99.90;;;;;;5056360;28;20029;-74
2022/10/02 08:23:47;;;;;;;15.38;8.50;;;12.20;99.90;;;;;;5061029;28;20027;-74
2022/10/02 08:26:37;;;;;;;12.32;7.47;;;12.30;99.90;;;;;;5053761;28;20071;-74
2022/10/02 08:29:25;;;;;;;13.50;7.60;;;12.40;99.90;;;;;;5049986;28;20024;-73
2022/10/02 08:31:51;;;;;;;13.88;7.28;;;12.40;99.90;;;;;;5060768;28;20029;-73
2022/10/02 08:34:22;;;;;;;16.27;8.23;;;12.40;99.90;;;;;;5052537;28;20025;-73
2022/10/02 08:37:12;;;;;;;13.38;6.50;;;12.40;99.90;;;;;;5051175;28;20374;-75
2022/10/02 08:39:58;;;;;;;12.82;7.00;;;12.40;99.90;;;;;;5051227;28;20028;-73
2022/10/02 08:42:39;;;;;;;14.65;7.00;;;12.40;99.90;;;;;;5051418;28;20017;-73
2022/10/02 08:45:39;;;;;;;18.13;8.40;;;12.40;99.90;;;;;;5051311;28;20021;-73
2022/10/02 08:49:02;;;;;;;14.05;7.35;;;12.40;99.90;;;;;;5051308;28;20025;-73
2022/10/02 08:52:17;;;;;;;14.85;7.95;;;12.40;99.90;;;;;;4981810;28;20030;-73
2022/10/02 08:55:00;;;;;;;13.00;6.80;;;12.40;99.90;;;;;;4989773;28;20290;-73
2022/10/02 08:58:09;;;;;;;14.02;6.40;;;12.40;99.90;;;;;;5050908;28;20029;-73
2022/10/02 09:01:10;;;;;;;7.88;6.03;;;12.40;99.90;;;;;;4984808;28;20391;-74
2022/10/02 09:04:14;;;;;;;11.90;5.63;;;12.40;99.90;;;;;;5056001;28;20021;-74
2022/10/02 09:07:01;;;;;;;11.05;6.72;;;12.30;99.90;;;;;;5071122;28;20113;-74
2022/10/02 09:09:41;;;;;;;12.25;6.22;;;12.40;99.90;;;;;;5069651;28;20028;-73
2022/10/02 09:12:09;;;;;;;13.23;6.50;;;12.30;99.90;;;;;;5062406;28;20025;-73
2022/10/02 09:15:12;;;;;;;12.88;6.60;;;12.40;99.90;;;;;;5049949;28;20025;-73
2022/10/02 09:17:48;;;;;;;9.50;5.22;;;12.40;99.90;;;;;;5050819;28;20025;-74
2022/10/02 09:20:38;;;;;;;7.88;5.43;;;12.30;99.90;;;;;;5049516;28;20586;-73
2022/10/02 09:23:21;;;;;;;8.88;5.10;;;12.30;99.90;;;;;;5051392;28;20490;-73
2022/10/02 09:26:15;;;;;;;7.80;4.80;;;12.30;99.90;;;;;;5050332;28;20474;-74
2022/10/02 09:28:55;;;;;;;8.38;4.72;;;12.30;99.90;;;;;;5050547;28;20029;-74
2022/10/02 09:31:52;;;;;;;10.75;5.78;;;12.30;99.90;;;;;;5049621;28;20029;-74
2022/10/02 09:35:00;;;;;;;10.27;5.30;;;12.30;99.90;;;;;;5050879;28;20032;-74
2022/10/02 09:38:04;;;;;;;8.68;4.82;;;12.30;99.90;;;;;;5020783;28;20037;-75
2022/10/02 09:40:58;;;;;;;10.90;5.10;;;12.30;99.90;;;;;;5054421;28;20021;-75
2022/10/02 09:43:34;;;;;;;6.85;4.65;;;12.20;99.90;;;;;;5063144;28;20025;-75
2022/10/02 09:46:20;;;;;;;;;;;12.20;99.90;;;;;;5051285;28;20025;-74
2022/10/02 09:49:10;;;;;;;9.30;4.75;;;12.20;99.90;;;;;;5053167;28;19909;-75
2022/10/02 09:52:05;;;;;;;6.88;4.10;;;12.20;99.90;;;;;;5016675;28;20087;-75
2022/10/02 09:54:43;;;;;;;7.88;3.22;;;12.20;99.90;;;;;;5054503;28;20025;-75
2022/10/02 09:57:34;;;;;;;10.45;4.28;;;12.10;99.90;;;;;;5054444;28;20406;-75
2022/10/02 10:00:10;;;;;;;9.68;3.53;;;12.10;99.90;;;;;;5069668;28;20017;-75
2022/10/02 10:02:46;;;;;;;;;;;12.10;99.90;;;;;;5073795;28;20036;-75
2022/10/02 10:05:55;;;;;;;8.23;4.20;;;12.10;99.90;;;;;;5062403;28;19966;-74
2022/10/02 10:08:36;;;;;;;8.55;4.05;;;12.10;99.90;;;;;;5074163;28;20020;-74
2022/10/02 10:11:16;;;;;;;7.47;3.83;;;12.10;99.90;;;;;;5072719;28;20024;-74
2022/10/02 10:14:11;;;;;;;7.15;4.00;;;12.20;99.90;;;;;;5054014;28;20028;-74
2022/10/02 10:16:42;;;;;;;10.60;4.47;;;12.20;99.90;;;;;;5053655;28;20021;-75
2022/10/02 10:19:24;;;;;;;7.18;4.13;;;12.30;99.90;;;;;;5053451;28;20394;-74
2022/10/02 10:22:04;;;;;;;9.15;4.50;;;12.40;99.90;;;;;;5052522;28;20471;-74
2022/10/02 10:24:46;;;;;;;7.68;3.75;;;12.50;99.90;;;;;;5052300;28;20021;-74
2022/10/02 10:27:41;;;;;;;9.50;4.38;;;12.60;99.90;;;;;;5053500;28;20099;-74
2022/10/02 10:30:18;;;;;;;9.23;4.20;;;12.80;99.90;;;;;;5053586;28;20414;-74
2022/10/02 10:33:15;;;;;;;6.97;3.97;;;12.70;99.90;;;;;;5053571;28;20028;-74
2022/10/02 10:36:00;;;;;;;7.65;3.75;;;12.70;99.90;;;;;;5053340;28;20523;-74
2022/10/02 10:38:31;;;;;;;6.97;4.20;;;12.60;99.90;;;;;;5053362;28;20021;-74
2022/10/02 10:41:15;;;;;;;5.30;3.83;;;12.70;99.90;;;;;;5052127;28;20323;-74
2022/10/02 10:43:59;;;;;;;5.72;4.20;;;12.80;99.90;;;;;;5051964;28;20060;-74
2022/10/02 10:46:34;;;;;;;5.35;3.78;;;12.80;99.90;;;;;;5053448;28;20422;-74
2022/10/02 10:49:22;;;;;;;6.30;4.10;;;12.70;99.90;;;;;;5051716;28;20024;-74
2022/10/02 10:51:58;;;;;;;4.40;3.65;;;12.70;99.90;;;;;;5053278;28;20029;-74
2022/10/02 10:54:49;;;;;;;6.93;3.80;;;12.70;99.90;;;;;;5053155;28;20025;-74
2022/10/02 10:57:34;;;;;;;5.95;3.47;;;12.80;99.90;;;;;;5052893;28;20033;-74
2022/10/02 11:00:15;;;;;;;7.22;3.80;;;12.90;99.90;;;;;;5052920;28;20025;-74
2022/10/02 11:02:59;;;;;;;8.07;3.65;;;12.80;99.90;;;;;;5053011;28;20080;-74
2022/10/02 11:05:30;;;;;;;9.40;3.90;;;12.90;99.90;;;;;;5061646;28;20021;-74
2022/10/02 11:08:14;;;;;;;7.00;4.03;;;12.90;99.90;;;;;;5072693;28;20066;-75
2022/10/02 11:10:53;;;;;;;9.48;4.95;;;13.00;99.90;;;;;;5062903;28;20029;-74
2022/10/02 11:13:50;;;;;;;8.85;4.60;;;12.90;99.90;;;;;;5052820;28;20020;-74
2022/10/02 11:16:21;;;;;;;4.57;3.33;;;12.90;99.90;;;;;;5054914;28;20390;-74
2022/10/02 11:19:06;;;;;;;5.82;3.70;;;12.80;99.90;;;;;;5070965;28;20028;-74
2022/10/02 11:21:51;;;;;;;5.22;3.30;;;12.80;99.90;;;;;;5073475;28;20370;-74
2022/10/02 11:24:33;;;;;;;6.18;3.33;;;12.80;99.90;;;;;;5072549;28;20024;-74
2022/10/02 11:27:29;;;;;;;5.45;3.55;;;12.90;99.90;;;;;;5072338;28;20025;-74
2022/10/02 11:30:18;;;;;;;6.03;2.83;;;12.80;99.90;;;;;;5071116;28;20033;-74
2022/10/02 11:32:44;;;;;;;3.33;2.30;;;12.80;99.90;;;;;;5053576;28;20035;-74
2022/10/02 11:35:19;;;;;;;4.57;2.30;;;12.80;99.90;;;;;;5063053;28;20111;-74
2022/10/02 11:38:22;;;;;;;4.07;2.77;;;12.70;99.90;;;;;;5053365;28;20049;-75
2022/10/02 11:41:01;;;;;;;7.32;2.50;;;12.70;99.90;;;;;;5052068;28;20017;-74
2022/10/02 11:44:01;;;;;;;4.03;2.10;;;12.70;99.90;;;;;;5050951;28;20021;-74
2022/10/02 11:46:54;;;;;;;4.45;1.90;;;12.70;99.90;;;;;;5050883;28;20032;-75
2022/10/02 11:49:57;;;;;;;3.65;2.15;;;12.60;99.90;;;;;;5059054;28;20452;-74
2022/10/02 11:52:53;;;;;;;3.70;2.30;;;12.60;99.90;;;;;;5052967;28;20375;-74
2022/10/02 11:55:33;;;;;;;3.72;2.50;;;12.60;99.90;;;;;;5051851;28;20032;-76
2022/10/02 11:58:43;;;;;;;3.65;2.63;;;12.60;99.90;;;;;;5050390;28;20101;-74
2022/10/02 12:01:48;;;;;;;6.97;2.35;;;12.50;99.90;;;;;;5050644;28;20029;-75
2022/10/02 12:04:46;;;;;;;3.55;1.95;;;12.50;99.90;;;;;;5059159;28;20032;-75
2022/10/02 12:07:34;;;;;;;5.45;2.40;;;12.50;99.90;;;;;;5051582;28;20071;-74
2022/10/02 12:10:35;;;;;;;7.47;2.60;;;12.50;99.90;;;;;;5051340;28;20021;-75
2022/10/02 12:13:19;;;;;;;3.08;2.58;;;12.40;99.90;;;;;;5052531;28;20395;-74
2022/10/02 12:16:13;;;;;;;5.22;2.50;;;12.60;99.90;;;;;;5050333;28;20033;-74
2022/10/02 12:19:11;;;;;;;11.82;7.78;;;12.50;99.90;;;;;;5051337;28;20051;-74
2022/10/02 12:27:53;;;;;;;3.78;2.88;;;12.40;99.90;;;;;;5065136;28;20381;-74
2022/10/02 12:30:22;;;;;;;4.20;2.65;;;12.40;99.90;;;;;;5051575;28;20068;-74
2022/10/02 12:32:55;;;;;;;3.70;2.50;;;12.50;99.90;;;;;;5051438;28;20281;-74
2022/10/02 12:35:53;;;;;;;4.65;3.50;;;12.50;99.90;;;;;;5051361;28;20028;-74
2022/10/02 12:38:54;;;;;;;3.53;3.00;;;12.50;99.90;;;;;;5045706;28;20036;-75
2022/10/02 12:41:57;;;;;;;3.75;2.65;;;12.60;99.90;;;;;;5051518;28;20025;-74
2022/10/02 12:44:43;;;;;;;4.97;2.97;;;12.60;99.90;;;;;;5064984;28;20071;-74
2022/10/02 12:47:37;;;;;;;3.97;2.75;;;12.50;99.90;;;;;;5064987;28;20025;-74
2022/10/02 12:50:28;;;;;;;4.80;3.05;;;12.60;99.90;;;;;;5071362;28;20558;-75
2022/10/02 12:53:09;;;;;;;7.00;3.53;;;12.50;99.90;;;;;;5071314;28;20491;-74
2022/10/02 12:56:02;;;;;;;4.45;3.20;;;12.60;99.90;;;;;;5065942;28;20487;-75
2022/10/02 12:58:33;;;;;;;5.15;3.20;;;12.60;99.90;;;;;;5051110;28;20032;-74
2022/10/02 13:01:35;;;;;;;3.92;3.30;;;12.60;99.90;;;;;;5050057;28;20134;-75
2022/10/02 13:04:36;;;;;;;5.47;3.70;;;12.70;99.90;;;;;;5051314;28;20390;-75
2022/10/02 13:07:30;;;;;;;3.38;3.08;;;12.70;99.90;;;;;;5051340;28;20024;-75
2022/10/02 13:10:28;;;;;;;5.07;3.85;;;12.60;99.90;;;;;;5051044;28;20029;-75
2022/10/02 13:13:41;;;;;;;4.80;3.40;;;12.70;99.90;;;;;;5017987;28;20044;-75
2022/10/02 13:16:22;;;;;;;5.32;3.78;;;12.70;99.90;;;;;;5037362;28;20394;-75
2022/10/02 13:18:58;;;;;;;4.65;4.00;;;12.80;99.90;;;;;;5050854;28;20070;-75
2022/10/02 13:21:30;;;;;;;3.65;3.35;;;12.80;99.90;;;;;;5049840;28;20036;-75
2022/10/02 13:24:11;;;;;;;7.82;4.93;;;12.70;99.90;;;;;;5053967;28;20052;-75
2022/10/02 13:26:58;;;;;;;6.88;3.85;;;12.60;99.90;;;;;;5055064;28;20387;-75
2022/10/02 13:29:58;;;;;;;5.63;4.10;;;12.60;99.90;;;;;;5072284;28;20032;-75
2022/10/02 13:33:03;;;;;;;5.50;3.20;;;12.60;99.90;;;;;;5059300;28;20215;-75
2022/10/02 13:35:37;;;;;;;3.30;3.00;;;12.70;99.90;;;;;;5068970;28;20497;-75
2022/10/02 13:38:29;;;;;;;3.92;2.90;;;12.70;99.90;;;;;;5066264;28;20126;-75
2022/10/02 13:41:26;;;;;;;3.80;2.90;;;12.70;99.90;;;;;;5053146;28;20475;-74
2022/10/02 13:44:16;;;;;;;4.78;3.35;;;12.70;99.90;;;;;;5054474;28;20021;-74
2022/10/02 13:46:59;;;;;;;4.05;3.35;;;12.70;99.90;;;;;;5053146;28;20116;-74
2022/10/02 13:49:47;;;;;;;3.83;3.40;;;12.70;99.90;;;;;;5054430;28;20029;-74
2022/10/02 13:52:25;;;;;;;4.85;3.30;;;12.70;99.90;;;;;;5056634;28;20100;-74
2022/10/02 13:55:10;;;;;;;4.00;3.60;;;12.80;99.90;;;;;;5072626;28;20025;-74
2022/10/02 13:58:01;;;;;;;4.03;3.63;;;12.70;99.90;;;;;;5061601;28;20025;-74